Aérodrome :
LOGIN :

S'inscrire | Disclaimer

   EN    FR    IT 

 










Légende :    VFR   VFR Marginal   IFR   IFR Intensif   IFR Très Intensif
Visi : 
Plafond : 
>= 8 km
>= 3000ft
5 à 8 km
1000 à 3000 ft
1500m à 5 km
500 à 1000 ft
800 à 1500m
200 à 500 ft
< 800m
< 200 ft
Symboles :   Orages  Brouillard  Fortes neiges  Fortes précipitations  Vent > 20 kt
SIGMETs :   Divers  Orages  Givrage  Turbulence  Onde Orograph.  Cendres Volcan.






- Altitude de l'aérodrome : 124 ft
- Code IATA : RNS


LFRN - Rennes

DERNIER METAR :
  • 281200Z AUTO 24013KT CAVOK 09/04 Q1008 TEMPO 24020G35KT 3000 SHRA BKN013CB

METARs EXPIRÉS :
  • 281130Z AUTO 24012KT 9999 FEW040 08/03 Q1008 TEMPO 24020G35KT 3000 SHRA BKN013CB
  • 281100Z AUTO 25016KT 220V280 CAVOK 08/03 Q1008 TEMPO 24020G35KT 3000 SHRAGS BKN013CB
  • 281030Z AUTO 24013KT 9999 BKN037 07/03 Q1007 TEMPO 24020G35KT 3000 SHRAGS BKN013CB
  • 281000Z AUTO 25014KT 9999 SCT040 BKN048 BKN086 07/03 Q1007 TEMPO 24020G35KT 3000 SHRAGS BKN013CB
  • 280930Z AUTO 24015KT CAVOK 07/03 Q1007 TEMPO 24020G35KT 3000 SHRAGS BKN013CB

TAF TAF LFRN
Valide du 28 à 12h jusqu'au 29 à 12h UTC


281100Z 2812/2912 24015G25KT 9999 SCT020
TEMPO 2812/2815 24020G35KT 3000 SHRA BKN013CB
TEMPO 2815/2818 24020G35KT 4000 SHRA BKN013TCU
PROB30
TEMPO 2818/2906 5000 SHRA BKN015
BECMG 2820/2822 24010KT
ATIS : +33 2 99 67 72 50



MET'MAP, la Météo Aéronautique d'un coup d'oeil ! - Copyright ORBIFLY Décembre 2007 - Disclaimer

ORBIFLY MET'MAP TEAM :

Programmation & Développement : Alexandra Zaïnal
Sur une idée originale de : Baudouin d'Aumeries
Assistance à la programmation : Marc-Olivier Méhu
Soutien technique & logistique : Manuel Goepfert

Contact : metmap@orbifly.com




SOURCES & CREDITS :

   NOAA